createdAt,value
2023-05-24T00:00:19.342Z,98668.66
2023-05-24T00:03:21.647Z,98662.25
2023-05-24T00:06:23.170Z,98667.50
2023-05-24T00:09:24.634Z,98665.72
2023-05-24T00:12:26.013Z,98668.50
2023-05-24T00:15:27.363Z,98668.03
2023-05-24T00:18:31.240Z,98653.19
2023-05-24T00:21:35.438Z,98660.06
2023-05-24T00:24:36.833Z,98653.69
2023-05-24T00:27:38.205Z,98652.94
2023-05-24T00:30:39.650Z,98645.63
2023-05-24T00:33:41.112Z,98639.13
2023-05-24T00:36:42.455Z,98636.16
2023-05-24T00:39:43.818Z,98641.13
2023-05-24T00:42:45.250Z,98640.19
2023-05-24T00:45:46.691Z,98629.56
2023-05-24T00:48:48.904Z,98634.13
2023-05-24T00:51:51.460Z,98636.16
2023-05-24T00:54:52.845Z,98634.03
2023-05-24T00:57:55.224Z,98629.97
2023-05-24T01:01:01.128Z,98626.97
2023-05-24T01:04:02.970Z,98627.69
2023-05-24T01:07:13.539Z,98635.78
2023-05-24T01:10:19.398Z,98631.34
2023-05-24T01:13:25.611Z,98634.72
2023-05-24T01:16:41.841Z,98640.38
2023-05-24T01:19:52.980Z,98635.22
2023-05-24T01:23:13.149Z,98632.66
2023-05-24T01:26:18.435Z,98636.50
2023-05-24T01:29:19.839Z,98637.44
2023-05-24T01:32:21.513Z,98635.56
2023-05-24T01:35:22.883Z,98627.16
2023-05-24T01:38:24.230Z,98624.94
2023-05-24T01:41:44.347Z,98631.66
2023-05-24T01:44:45.641Z,98634.00
2023-05-24T01:47:58.325Z,98635.69
2023-05-24T01:51:00.563Z,98644.34
2023-05-24T01:54:04.596Z,98629.59
2023-05-24T01:57:08.848Z,98637.22
2023-05-24T02:00:10.768Z,98633.91
2023-05-24T02:03:14.321Z,98638.53
2023-05-24T02:06:15.716Z,98647.00
2023-05-24T02:09:17.310Z,98640.25
2023-05-24T02:12:18.735Z,98654.03
2023-05-24T02:15:20.694Z,98640.78
2023-05-24T02:18:22.617Z,98643.09
2023-05-24T02:21:25.219Z,98653.22
2023-05-24T02:24:26.802Z,98639.91
2023-05-24T02:27:28.138Z,98654.63
2023-05-24T02:30:29.530Z,98650.31
2023-05-24T02:33:31.026Z,98643.34
2023-05-24T02:36:34.461Z,98647.13
2023-05-24T02:39:35.807Z,98654.56
2023-05-24T02:42:37.136Z,98647.25
2023-05-24T02:45:38.459Z,98641.13
2023-05-24T02:48:40.139Z,98636.19
2023-05-24T02:51:41.453Z,98649.72
2023-05-24T02:54:42.789Z,98637.84
2023-05-24T02:57:44.125Z,98635.22
2023-05-24T03:00:45.895Z,98635.41
2023-05-24T03:03:47.452Z,98629.91
2023-05-24T03:06:48.906Z,98636.34
2023-05-24T03:09:50.271Z,98646.66
2023-05-24T03:12:51.634Z,98639.38
2023-05-24T03:15:53.004Z,98643.00
2023-05-24T03:18:55.465Z,98643.91
2023-05-24T03:21:56.822Z,98638.06
2023-05-24T03:24:58.233Z,98639.47
2023-05-24T03:27:59.602Z,98635.38
2023-05-24T03:31:01.114Z,98644.13
2023-05-24T03:34:02.484Z,98651.28
2023-05-24T03:37:03.880Z,98645.00
2023-05-24T03:40:06.731Z,98641.47
2023-05-24T03:43:08.175Z,98639.75
2023-05-24T03:46:09.551Z,98642.53
2023-05-24T03:49:10.907Z,98646.94
2023-05-24T03:52:12.350Z,98639.03
2023-05-24T03:55:14.988Z,98647.75
2023-05-24T03:58:16.341Z,98642.13
2023-05-24T04:01:32.173Z,98643.78
2023-05-24T04:04:36.952Z,98651.41
2023-05-24T04:07:38.331Z,98647.88
2023-05-24T04:10:39.864Z,98651.47
2023-05-24T04:13:41.174Z,98652.44
2023-05-24T04:16:45.139Z,98647.81
2023-05-24T04:19:46.862Z,98648.16
2023-05-24T04:22:48.206Z,98657.75
2023-05-24T04:25:50.155Z,98659.06
2023-05-24T04:28:51.622Z,98648.94
2023-05-24T04:31:53.022Z,98666.88
2023-05-24T04:34:54.457Z,98661.84
2023-05-24T04:37:56.141Z,98664.84
2023-05-24T04:40:59.237Z,98658.28
2023-05-24T04:44:00.827Z,98654.28
2023-05-24T04:47:03.985Z,98651.03
2023-05-24T04:50:06.296Z,98657.06
2023-05-24T04:53:07.648Z,98655.91
2023-05-24T04:56:09.069Z,98659.84
2023-05-24T04:59:10.530Z,98658.78
2023-05-24T05:02:12.057Z,98655.91
2023-05-24T05:05:13.535Z,98659.72
2023-05-24T05:08:15.322Z,98659.44
2023-05-24T05:11:18.411Z,98661.22
2023-05-24T05:14:19.837Z,98671.75
2023-05-24T05:17:21.756Z,98677.16
2023-05-24T05:20:23.143Z,98669.63
2023-05-24T05:23:24.472Z,98676.91
2023-05-24T05:26:27.056Z,98669.75
2023-05-24T05:29:28.586Z,98672.13
2023-05-24T05:32:30.096Z,98677.31
2023-05-24T05:35:32.979Z,98678.84
2023-05-24T05:38:34.431Z,98683.78
2023-05-24T05:41:39.554Z,98680.44
2023-05-24T05:44:40.942Z,98682.16
2023-05-24T05:47:43.275Z,98684.19
2023-05-24T05:50:44.710Z,98682.75
2023-05-24T05:53:46.498Z,98681.72
2023-05-24T05:56:48.271Z,98681.66
2023-05-24T05:59:50.044Z,98692.91
2023-05-24T06:02:51.525Z,98694.38
2023-05-24T06:05:53.004Z,98691.75
2023-05-24T06:08:54.626Z,98698.66
2023-05-24T06:11:56.073Z,98704.53
2023-05-24T06:14:57.604Z,98701.88
2023-05-24T06:18:00.723Z,98708.97
2023-05-24T06:21:02.303Z,98717.66
2023-05-24T06:24:06.267Z,98719.50
2023-05-24T06:27:07.631Z,98711.97
2023-05-24T06:30:09.135Z,98716.78
2023-05-24T06:33:10.902Z,98718.34
2023-05-24T06:36:12.312Z,98725.91
2023-05-24T06:39:14.324Z,98720.50
2023-05-24T06:42:15.650Z,98724.97
2023-05-24T06:45:17.055Z,98735.72
2023-05-24T06:48:18.509Z,98734.34
2023-05-24T06:51:20.226Z,98734.88
2023-05-24T06:54:21.643Z,98732.47
2023-05-24T06:57:23.011Z,98736.22
2023-05-24T07:00:24.442Z,98732.19
2023-05-24T07:03:26.382Z,98734.25
2023-05-24T07:06:27.816Z,98730.00
2023-05-24T07:09:29.163Z,98735.59
2023-05-24T07:12:32.384Z,98739.34
2023-05-24T07:15:33.698Z,98745.28
2023-05-24T07:18:35.032Z,98740.47
2023-05-24T07:21:37.470Z,98747.00
2023-05-24T07:24:38.953Z,98750.84
2023-05-24T07:27:40.268Z,98749.53
2023-05-24T07:30:41.727Z,98752.13
2023-05-24T07:33:43.082Z,98751.31
2023-05-24T07:36:45.489Z,98757.53
2023-05-24T07:39:46.836Z,98755.69
2023-05-24T07:42:48.334Z,98761.50
2023-05-24T07:45:49.905Z,98762.53
2023-05-24T07:48:51.457Z,98758.19
2023-05-24T07:51:53.114Z,98753.91
2023-05-24T07:54:54.552Z,98750.38
2023-05-24T07:57:56.764Z,98752.97
2023-05-24T08:00:58.095Z,98752.16
2023-05-24T08:04:01.360Z,98753.25
2023-05-24T08:07:05.098Z,98757.22
2023-05-24T08:10:06.906Z,98753.97
2023-05-24T08:13:08.440Z,98752.44
2023-05-24T08:16:09.744Z,98755.78
2023-05-24T08:19:11.090Z,98753.47
2023-05-24T08:22:12.748Z,98756.75
2023-05-24T08:25:14.170Z,98759.00
2023-05-24T08:28:16.914Z,98758.50
2023-05-24T08:31:18.558Z,98766.59
2023-05-24T08:34:20.567Z,98765.53
2023-05-24T08:37:22.694Z,98761.59
2023-05-24T08:40:24.972Z,98767.63
2023-05-24T08:43:26.708Z,98776.28
2023-05-24T08:46:28.965Z,98772.63
2023-05-24T08:49:33.560Z,98771.38
2023-05-24T08:52:35.769Z,98771.41
2023-05-24T08:55:38.110Z,98776.16
2023-05-24T08:58:40.451Z,98775.00
2023-05-24T09:01:42.242Z,98770.75
2023-05-24T09:04:44.450Z,98771.50
2023-05-24T09:07:46.195Z,98780.31
2023-05-24T09:10:55.008Z,98784.94
2023-05-24T09:13:57.230Z,98785.13
2023-05-24T09:16:58.746Z,98784.78
2023-05-24T09:20:00.434Z,98786.25
2023-05-24T09:23:03.173Z,98791.66
2023-05-24T09:26:08.482Z,98796.84
2023-05-24T09:29:09.836Z,98802.75
2023-05-24T09:32:11.174Z,98805.06
2023-05-24T09:35:12.549Z,98805.47
2023-05-24T09:38:18.445Z,98798.09
2023-05-24T09:41:20.470Z,98801.00
2023-05-24T09:44:24.739Z,98800.41
2023-05-24T09:47:33.166Z,98797.94
2023-05-24T09:50:34.668Z,98793.41
2023-05-24T09:53:36.982Z,98793.47
2023-05-24T09:56:39.633Z,98791.44
2023-05-24T09:59:41.803Z,98785.59
2023-05-24T10:02:53.005Z,98789.53
2023-05-24T10:05:55.919Z,98786.19
2023-05-24T10:08:57.381Z,98784.53
2023-05-24T10:12:01.379Z,98776.38
2023-05-24T10:15:03.866Z,98776.75
2023-05-24T10:18:10.596Z,98770.97
2023-05-24T10:21:13.683Z,98778.00
2023-05-24T10:24:19.134Z,98774.03
2023-05-24T10:27:23.903Z,98770.00
2023-05-24T10:30:25.860Z,98774.19
2023-05-24T10:33:27.388Z,98766.50
2023-05-24T10:36:28.874Z,98766.78
2023-05-24T10:39:32.974Z,98772.69
2023-05-24T10:42:35.112Z,98757.75
2023-05-24T10:45:37.890Z,98760.75
2023-05-24T10:48:40.478Z,98754.81
2023-05-24T10:51:41.891Z,98760.53
2023-05-24T10:55:05.204Z,98753.81
2023-05-24T10:58:06.935Z,98759.56
2023-05-24T11:01:13.199Z,98760.00
2023-05-24T11:04:18.432Z,98752.66
2023-05-24T11:07:19.874Z,98758.47
2023-05-24T11:10:30.290Z,98756.03
2023-05-24T11:13:32.818Z,98764.44
2023-05-24T11:16:35.494Z,98758.97
2023-05-24T11:19:37.703Z,98765.84
2023-05-24T11:22:41.554Z,98751.97
2023-05-24T11:25:43.176Z,98748.00
2023-05-24T11:28:46.269Z,98750.78
2023-05-24T11:31:48.522Z,98748.81
2023-05-24T11:34:51.062Z,98746.06
2023-05-24T11:37:53.142Z,98747.00
2023-05-24T11:40:54.536Z,98739.06
2023-05-24T11:43:55.840Z,98729.69
2023-05-24T11:47:00.696Z,98732.63
2023-05-24T11:50:02.227Z,98736.75
2023-05-24T11:53:03.978Z,98734.91
2023-05-24T11:56:05.619Z,98729.16
2023-05-24T11:59:09.267Z,98731.81
2023-05-24T12:02:10.692Z,98726.41
2023-05-24T12:05:14.264Z,98727.09
2023-05-24T12:08:15.776Z,98724.66
2023-05-24T12:11:17.327Z,98721.97
2023-05-24T12:14:28.126Z,98720.28
2023-05-24T12:17:29.618Z,98724.91
2023-05-24T12:20:31.006Z,98716.41
2023-05-24T12:23:32.802Z,98724.94
2023-05-24T12:26:35.925Z,98712.75
2023-05-24T12:29:39.751Z,98705.97
2023-05-24T12:32:41.271Z,98703.41
2023-05-24T12:35:42.980Z,98701.22
2023-05-24T12:38:44.482Z,98703.56
2023-05-24T12:41:49.861Z,98701.53
2023-05-24T12:44:53.054Z,98699.88
2023-05-24T12:47:55.777Z,98701.19
2023-05-24T12:50:57.169Z,98701.19
2023-05-24T12:53:58.625Z,98682.78
2023-05-24T12:57:00.743Z,98690.31
2023-05-24T13:00:02.172Z,98684.91
2023-05-24T13:03:03.611Z,98680.13
2023-05-24T13:06:05.048Z,98688.06
2023-05-24T13:09:06.439Z,98697.75
2023-05-24T13:12:08.111Z,98685.06
2023-05-24T13:15:09.885Z,98694.50
2023-05-24T13:18:11.216Z,98691.69
2023-05-24T13:21:12.817Z,98685.50
2023-05-24T13:24:15.660Z,98674.53
2023-05-24T13:27:17.153Z,98675.72
2023-05-24T13:30:18.793Z,98677.22
2023-05-24T13:33:20.383Z,98671.88
2023-05-24T13:36:21.792Z,98675.06
2023-05-24T13:39:23.750Z,98661.78
2023-05-24T13:42:25.246Z,98658.13
2023-05-24T13:45:27.498Z,98660.66
2023-05-24T13:48:29.072Z,98659.75
2023-05-24T13:51:30.745Z,98662.31
2023-05-24T13:54:32.194Z,98660.81
2023-05-24T13:57:49.767Z,98664.13
2023-05-24T14:00:52.811Z,98660.25
2023-05-24T14:03:54.451Z,98667.19
2023-05-24T14:06:55.898Z,98668.44
2023-05-24T14:09:58.207Z,98662.81
2023-05-24T14:13:20.642Z,98662.91
2023-05-24T14:16:21.291Z,98661.19
2023-05-24T14:19:22.685Z,98653.44
2023-05-24T14:22:26.023Z,98666.75
2023-05-24T14:25:27.347Z,98665.72
2023-05-24T14:28:28.730Z,98660.19
2023-05-24T14:31:30.097Z,98661.84
2023-05-24T14:34:31.540Z,98663.78
2023-05-24T14:37:32.911Z,98658.69
2023-05-24T14:40:34.503Z,98666.19
2023-05-24T14:43:37.579Z,98663.47
2023-05-24T14:46:40.328Z,98656.72
2023-05-24T14:49:41.734Z,98658.31
2023-05-24T14:52:43.077Z,98657.41
2023-05-24T14:55:44.871Z,98656.84
2023-05-24T14:58:46.508Z,98654.41
2023-05-24T15:09:10.276Z,98662.81
2023-05-24T15:12:11.923Z,98667.19
2023-05-24T15:15:13.694Z,98670.53
2023-05-24T15:18:15.090Z,98667.19
2023-05-24T15:21:16.504Z,98655.19
2023-05-24T15:24:17.839Z,98663.19
2023-05-24T15:27:19.132Z,98663.41
2023-05-24T15:30:20.786Z,98671.81
2023-05-24T15:33:23.253Z,98664.78
2023-05-24T15:36:24.643Z,98664.22
2023-05-24T15:39:26.392Z,98661.94
2023-05-24T15:42:27.712Z,98666.78
2023-05-24T15:45:29.113Z,98670.97
2023-05-24T15:48:30.520Z,98665.00
2023-05-24T15:52:02.791Z,98671.44
2023-05-24T15:54:53.274Z,98667.22
2023-05-24T15:57:56.999Z,98673.25
2023-05-24T16:00:58.330Z,98673.69
2023-05-24T16:04:00.567Z,98658.56
2023-05-24T16:07:02.090Z,98663.78
2023-05-24T16:10:03.533Z,98658.72
2023-05-24T16:13:04.922Z,98669.50
2023-05-24T16:16:06.332Z,98667.28
2023-05-24T16:19:08.014Z,98662.81
2023-05-24T16:22:09.366Z,98663.25
2023-05-24T16:25:10.729Z,98671.59
2023-05-24T16:28:12.269Z,98658.69
2023-05-24T16:31:13.662Z,98664.09
2023-05-24T16:34:15.178Z,98666.16
2023-05-24T16:37:16.534Z,98655.97
2023-05-24T16:40:17.873Z,98660.19
2023-05-24T16:43:19.346Z,98659.22
2023-05-24T16:46:23.642Z,98662.38
2023-05-24T16:49:26.219Z,98660.03
2023-05-24T16:52:27.562Z,98661.69
2023-05-24T16:55:28.975Z,98655.47
2023-05-24T16:58:30.853Z,98652.78
2023-05-24T17:01:32.557Z,98654.06
2023-05-24T17:04:34.300Z,98659.31
2023-05-24T17:07:36.850Z,98653.91
2023-05-24T17:10:38.266Z,98655.25
2023-05-24T17:13:39.912Z,98656.09
2023-05-24T17:16:41.298Z,98652.84
2023-05-24T17:19:42.771Z,98661.25
2023-05-24T17:22:46.514Z,98658.34
2023-05-24T17:25:47.858Z,98667.47
2023-05-24T17:28:49.181Z,98665.25
2023-05-24T17:31:50.610Z,98665.25
2023-05-24T17:34:52.125Z,98665.91
2023-05-24T17:37:53.576Z,98670.03
2023-05-24T17:40:59.307Z,98669.66
2023-05-24T17:44:01.080Z,98661.94
2023-05-24T17:47:02.436Z,98671.97
2023-05-24T17:50:03.893Z,98673.75
2023-05-24T17:53:10.936Z,98669.44
2023-05-24T17:56:22.349Z,98681.84
2023-05-24T17:59:23.716Z,98682.28
2023-05-24T18:02:25.136Z,98690.72
2023-05-24T18:05:27.021Z,98688.53
2023-05-24T18:08:30.685Z,98686.88
2023-05-24T18:11:32.287Z,98700.81
2023-05-24T18:14:33.757Z,98697.66
2023-05-24T18:17:35.661Z,98701.34
2023-05-24T18:20:37.251Z,98703.78
2023-05-24T18:23:38.920Z,98703.50
2023-05-24T18:26:40.347Z,98711.09
2023-05-24T18:29:41.742Z,98718.13
2023-05-24T18:32:55.980Z,98714.97
2023-05-24T18:36:05.670Z,98723.91
2023-05-24T18:39:07.097Z,98721.25
2023-05-24T18:42:09.110Z,98723.22
2023-05-24T18:45:10.708Z,98719.69
2023-05-24T18:48:12.058Z,98723.28
2023-05-24T18:51:15.858Z,98729.75
2023-05-24T18:54:17.373Z,98728.22
2023-05-24T18:57:19.206Z,98732.53
2023-05-24T19:00:22.832Z,98735.13
2023-05-24T19:03:24.808Z,98739.38
2023-05-24T19:06:26.633Z,98739.66
2023-05-24T19:09:28.016Z,98740.72
2023-05-24T19:12:30.019Z,98742.72
2023-05-24T19:15:32.098Z,98750.00
2023-05-24T19:18:33.498Z,98763.44
2023-05-24T19:21:34.832Z,98757.06
2023-05-24T19:24:36.170Z,98761.59
2023-05-24T19:27:39.813Z,98769.81
2023-05-24T19:30:46.318Z,98774.88
2023-05-24T19:34:00.036Z,98778.38
2023-05-24T19:37:02.205Z,98787.50
2023-05-24T19:40:03.741Z,98791.06
2023-05-24T19:43:05.104Z,98791.06
2023-05-24T19:46:07.288Z,98800.06
2023-05-24T19:49:09.886Z,98799.75
2023-05-24T19:52:11.376Z,98799.75
2023-05-24T19:55:12.710Z,98810.38
2023-05-24T19:58:14.055Z,98818.22
2023-05-24T20:01:15.632Z,98819.22
2023-05-24T20:04:17.136Z,98817.56
2023-05-24T20:07:18.499Z,98827.06
2023-05-24T20:10:19.895Z,98827.78
2023-05-24T20:13:21.558Z,98829.22
2023-05-24T20:16:23.384Z,98829.84
2023-05-24T20:19:26.218Z,98834.88
2023-05-24T20:22:27.674Z,98834.88
2023-05-24T20:25:29.262Z,98839.41
2023-05-24T20:28:32.013Z,98832.59
2023-05-24T20:31:33.643Z,98828.94
2023-05-24T20:34:35.381Z,98829.97
2023-05-24T20:37:36.847Z,98837.50
2023-05-24T20:40:38.866Z,98839.16
2023-05-24T20:43:40.348Z,98836.91
2023-05-24T20:46:41.920Z,98834.66
2023-05-24T20:49:43.294Z,98831.25
2023-05-24T20:52:44.649Z,98835.31
2023-05-24T20:55:46.246Z,98835.03
2023-05-24T20:58:52.709Z,98837.88
2023-05-24T21:01:55.190Z,98846.44
2023-05-24T21:04:57.560Z,98841.13
2023-05-24T21:07:58.895Z,98847.03
2023-05-24T21:11:00.563Z,98854.75
2023-05-24T21:14:01.934Z,98855.56
2023-05-24T21:17:03.395Z,98859.03
2023-05-24T21:20:05.093Z,98860.69
2023-05-24T21:23:06.666Z,98868.50
2023-05-24T21:26:09.222Z,98862.19
2023-05-24T21:29:13.224Z,98863.94
2023-05-24T21:32:14.829Z,98866.50
2023-05-24T21:35:16.359Z,98867.06
2023-05-24T21:38:17.717Z,98876.44
2023-05-24T21:41:19.207Z,98871.19
2023-05-24T21:44:20.794Z,98874.66
2023-05-24T21:47:22.336Z,98878.09
2023-05-24T21:50:23.892Z,98877.09
2023-05-24T21:53:25.344Z,98881.56
2023-05-24T21:56:27.070Z,98889.28
2023-05-24T21:59:28.504Z,98887.97
2023-05-24T22:02:31.065Z,98890.69
2023-05-24T22:05:32.642Z,98886.59
2023-05-24T22:08:34.003Z,98898.19
2023-05-24T22:11:35.462Z,98902.09
2023-05-24T22:14:36.856Z,98888.66
2023-05-24T22:17:41.156Z,98894.91
2023-05-24T22:20:44.853Z,98899.66
2023-05-24T22:23:46.287Z,98897.72
2023-05-24T22:26:47.763Z,98894.88
2023-05-24T22:29:49.137Z,98900.50
2023-05-24T22:32:50.954Z,98899.53
2023-05-24T22:35:53.360Z,98900.84
2023-05-24T22:38:54.695Z,98904.97
2023-05-24T22:41:56.170Z,98897.34
2023-05-24T22:44:57.861Z,98898.53
2023-05-24T22:47:59.254Z,98900.09
2023-05-24T22:51:00.726Z,98908.59
2023-05-24T22:54:02.309Z,98909.25
2023-05-24T22:57:03.761Z,98908.06
2023-05-24T23:00:07.741Z,98916.19
2023-05-24T23:03:09.306Z,98911.03
2023-05-24T23:06:11.975Z,98906.63
2023-05-24T23:09:13.451Z,98906.53
2023-05-24T23:12:14.811Z,98900.75
2023-05-24T23:15:18.231Z,98906.56
2023-05-24T23:18:22.194Z,98894.72
2023-05-24T23:21:24.765Z,98897.47
2023-05-24T23:24:26.801Z,98896.75
2023-05-24T23:27:28.267Z,98901.84
2023-05-24T23:30:29.756Z,98902.28
2023-05-24T23:33:31.159Z,98907.84
2023-05-24T23:36:32.496Z,98912.50
2023-05-24T23:39:33.941Z,98907.50
2023-05-24T23:42:36.253Z,98899.09
2023-05-24T23:45:37.618Z,98904.63
2023-05-24T23:48:38.955Z,98903.13
2023-05-24T23:51:40.439Z,98902.41
2023-05-24T23:54:41.909Z,98899.09
2023-05-24T23:57:43.280Z,98904.50
